sensor_id;sensor_type;location;lat;lon;timestamp;pressure;altitude;pressure_sealevel;temperature;humidity
11542;BME280;5827;49.482;7.716;2022-07-29T00:00:45;98615.22;;;20.93;81.57
11542;BME280;5827;49.482;7.716;2022-07-29T00:02:46;98617.00;;;20.98;82.00
11542;BME280;5827;49.482;7.716;2022-07-29T00:04:48;98615.22;;;20.93;81.72
11542;BME280;5827;49.482;7.716;2022-07-29T00:06:49;98612.97;;;20.87;79.89
11542;BME280;5827;49.482;7.716;2022-07-29T00:08:51;98612.06;;;21.00;79.35
11542;BME280;5827;49.482;7.716;2022-07-29T00:10:52;98612.22;;;20.95;79.77
11542;BME280;5827;49.482;7.716;2022-07-29T00:12:55;98609.78;;;20.93;80.41
11542;BME280;5827;49.482;7.716;2022-07-29T00:14:57;98608.38;;;20.96;80.48
11542;BME280;5827;49.482;7.716;2022-07-29T00:16:58;98599.84;;;20.89;79.90
11542;BME280;5827;49.482;7.716;2022-07-29T00:19:00;98599.34;;;20.87;80.39
11542;BME280;5827;49.482;7.716;2022-07-29T00:21:01;98597.94;;;20.89;80.65
11542;BME280;5827;49.482;7.716;2022-07-29T00:23:03;98594.09;;;20.90;79.42
11542;BME280;5827;49.482;7.716;2022-07-29T00:25:05;98597.63;;;20.91;79.47
11542;BME280;5827;49.482;7.716;2022-07-29T00:27:07;98592.78;;;20.88;80.88
11542;BME280;5827;49.482;7.716;2022-07-29T00:29:09;98586.41;;;20.92;81.99
11542;BME280;5827;49.482;7.716;2022-07-29T00:31:11;98594.25;;;20.85;80.80
11542;BME280;5827;49.482;7.716;2022-07-29T00:33:13;98595.44;;;20.70;81.47
11542;BME280;5827;49.482;7.716;2022-07-29T00:35:14;98586.19;;;20.71;83.55
11542;BME280;5827;49.482;7.716;2022-07-29T00:37:34;98586.00;;;20.68;85.27
11542;BME280;5827;49.482;7.716;2022-07-29T00:39:35;98577.78;;;20.59;85.79
11542;BME280;5827;49.482;7.716;2022-07-29T00:41:37;98575.06;;;20.59;86.19
11542;BME280;5827;49.482;7.716;2022-07-29T00:43:38;98579.34;;;20.51;86.49
11542;BME280;5827;49.482;7.716;2022-07-29T00:45:42;98576.25;;;20.44;86.65
11542;BME280;5827;49.482;7.716;2022-07-29T00:47:44;98574.09;;;20.33;87.25
11542;BME280;5827;49.482;7.716;2022-07-29T00:49:46;98572.97;;;20.34;86.55
11542;BME280;5827;49.482;7.716;2022-07-29T00:51:48;98571.66;;;20.22;87.25
11542;BME280;5827;49.482;7.716;2022-07-29T00:53:50;98572.25;;;20.19;86.57
11542;BME280;5827;49.482;7.716;2022-07-29T00:55:53;98574.63;;;20.12;86.36
11542;BME280;5827;49.482;7.716;2022-07-29T00:57:55;98565.78;;;20.06;88.49
11542;BME280;5827;49.482;7.716;2022-07-29T00:59:58;98577.91;;;20.00;87.87
11542;BME280;5827;49.482;7.716;2022-07-29T01:02:01;98571.00;;;19.94;88.53
11542;BME280;5827;49.482;7.716;2022-07-29T01:04:03;98569.88;;;19.95;88.17
11542;BME280;5827;49.482;7.716;2022-07-29T01:06:04;98576.44;;;19.94;88.20
11542;BME280;5827;49.482;7.716;2022-07-29T01:08:07;98575.19;;;20.00;88.64
11542;BME280;5827;49.482;7.716;2022-07-29T01:10:11;98565.75;;;19.98;88.83
11542;BME280;5827;49.482;7.716;2022-07-29T01:12:16;98568.56;;;19.93;89.42
11542;BME280;5827;49.482;7.716;2022-07-29T01:14:18;98570.34;;;19.97;89.75
11542;BME280;5827;49.482;7.716;2022-07-29T01:16:22;98575.13;;;19.92;91.02
11542;BME280;5827;49.482;7.716;2022-07-29T01:18:32;98569.00;;;19.86;92.06
11542;BME280;5827;49.482;7.716;2022-07-29T01:23:27;98567.94;;;19.73;90.64
11542;BME280;5827;49.482;7.716;2022-07-29T01:26:04;98563.16;;;19.70;92.08
11542;BME280;5827;49.482;7.716;2022-07-29T01:28:45;98563.94;;;19.71;91.08
11542;BME280;5827;49.482;7.716;2022-07-29T01:30:49;98567.59;;;19.66;91.40
11542;BME280;5827;49.482;7.716;2022-07-29T01:32:59;98565.97;;;19.65;92.72
11542;BME280;5827;49.482;7.716;2022-07-29T01:35:04;98567.97;;;19.60;92.81
11542;BME280;5827;49.482;7.716;2022-07-29T01:37:15;98566.88;;;19.61;93.38
11542;BME280;5827;49.482;7.716;2022-07-29T01:39:23;98565.38;;;19.54;92.49
11542;BME280;5827;49.482;7.716;2022-07-29T01:41:28;98566.28;;;19.50;93.11
11542;BME280;5827;49.482;7.716;2022-07-29T01:43:36;98559.47;;;19.52;94.05
11542;BME280;5827;49.482;7.716;2022-07-29T01:45:41;98567.53;;;19.44;93.02
11542;BME280;5827;49.482;7.716;2022-07-29T01:47:50;98555.66;;;19.40;93.49
11542;BME280;5827;49.482;7.716;2022-07-29T01:49:56;98559.63;;;19.34;93.75
11542;BME280;5827;49.482;7.716;2022-07-29T01:52:01;98557.47;;;19.44;94.67
11542;BME280;5827;49.482;7.716;2022-07-29T01:54:10;98559.25;;;19.49;94.16
11542;BME280;5827;49.482;7.716;2022-07-29T01:56:13;98562.22;;;19.39;95.72
11542;BME280;5827;49.482;7.716;2022-07-29T01:58:17;98553.88;;;19.35;95.92
11542;BME280;5827;49.482;7.716;2022-07-29T02:00:21;98564.06;;;19.29;95.50
11542;BME280;5827;49.482;7.716;2022-07-29T02:02:26;98563.25;;;19.29;95.99
11542;BME280;5827;49.482;7.716;2022-07-29T02:04:29;98562.25;;;19.25;96.71
11542;BME280;5827;49.482;7.716;2022-07-29T02:06:34;98563.06;;;19.25;95.42
11542;BME280;5827;49.482;7.716;2022-07-29T02:08:39;98565.56;;;19.22;95.82
11542;BME280;5827;49.482;7.716;2022-07-29T02:10:42;98568.69;;;19.29;94.97
11542;BME280;5827;49.482;7.716;2022-07-29T02:12:45;98566.47;;;19.17;96.85
11542;BME280;5827;49.482;7.716;2022-07-29T02:14:51;98568.59;;;19.20;97.19
11542;BME280;5827;49.482;7.716;2022-07-29T02:16:55;98558.00;;;19.19;97.57
11542;BME280;5827;49.482;7.716;2022-07-29T02:19:01;98563.06;;;19.25;96.73
11542;BME280;5827;49.482;7.716;2022-07-29T02:21:04;98564.19;;;19.11;96.34
11542;BME280;5827;49.482;7.716;2022-07-29T02:23:07;98562.28;;;19.11;96.12
11542;BME280;5827;49.482;7.716;2022-07-29T02:25:12;98561.28;;;19.07;96.24
11542;BME280;5827;49.482;7.716;2022-07-29T02:27:15;98566.69;;;19.07;96.64
11542;BME280;5827;49.482;7.716;2022-07-29T02:29:19;98568.91;;;19.05;97.87
11542;BME280;5827;49.482;7.716;2022-07-29T02:31:24;98566.19;;;19.05;97.98
11542;BME280;5827;49.482;7.716;2022-07-29T02:33:27;98563.28;;;19.01;98.25
11542;BME280;5827;49.482;7.716;2022-07-29T02:35:33;98567.63;;;19.02;97.22
11542;BME280;5827;49.482;7.716;2022-07-29T02:37:36;98564.50;;;18.95;96.47
11542;BME280;5827;49.482;7.716;2022-07-29T02:39:39;98567.31;;;18.90;97.09
11542;BME280;5827;49.482;7.716;2022-07-29T02:41:42;98570.34;;;18.89;96.36
11542;BME280;5827;49.482;7.716;2022-07-29T02:43:47;98564.91;;;18.89;96.35
11542;BME280;5827;49.482;7.716;2022-07-29T02:45:51;98568.00;;;18.82;96.14
11542;BME280;5827;49.482;7.716;2022-07-29T02:47:55;98569.94;;;18.82;95.81
11542;BME280;5827;49.482;7.716;2022-07-29T02:50:02;98565.13;;;18.78;95.69
11542;BME280;5827;49.482;7.716;2022-07-29T02:52:09;98571.84;;;18.81;96.27
11542;BME280;5827;49.482;7.716;2022-07-29T02:54:26;98564.91;;;18.75;95.90
11542;BME280;5827;49.482;7.716;2022-07-29T02:56:33;98562.00;;;18.71;96.23
11542;BME280;5827;49.482;7.716;2022-07-29T02:58:40;98573.50;;;18.63;96.50
11542;BME280;5827;49.482;7.716;2022-07-29T03:00:42;98577.94;;;18.59;96.85
11542;BME280;5827;49.482;7.716;2022-07-29T03:02:49;98578.56;;;18.56;97.05
11542;BME280;5827;49.482;7.716;2022-07-29T03:04:52;98564.88;;;18.47;97.53
11542;BME280;5827;49.482;7.716;2022-07-29T03:06:58;98572.19;;;18.33;98.88
11542;BME280;5827;49.482;7.716;2022-07-29T03:09:02;98576.19;;;18.36;99.09
11542;BME280;5827;49.482;7.716;2022-07-29T03:11:04;98573.00;;;18.34;98.58
11542;BME280;5827;49.482;7.716;2022-07-29T03:13:06;98571.78;;;18.40;98.39
11542;BME280;5827;49.482;7.716;2022-07-29T03:15:10;98572.91;;;18.39;98.71
11542;BME280;5827;49.482;7.716;2022-07-29T03:17:12;98576.09;;;18.41;97.97
11542;BME280;5827;49.482;7.716;2022-07-29T03:19:14;98581.72;;;18.44;97.63
11542;BME280;5827;49.482;7.716;2022-07-29T03:21:16;98581.84;;;18.39;97.51
11542;BME280;5827;49.482;7.716;2022-07-29T03:23:18;98580.22;;;18.38;97.00
11542;BME280;5827;49.482;7.716;2022-07-29T03:25:22;98577.59;;;18.33;96.91
11542;BME280;5827;49.482;7.716;2022-07-29T03:27:23;98580.50;;;18.37;96.42
11542;BME280;5827;49.482;7.716;2022-07-29T03:29:25;98583.44;;;18.40;96.50
11542;BME280;5827;49.482;7.716;2022-07-29T03:31:27;98578.69;;;18.32;97.61
11542;BME280;5827;49.482;7.716;2022-07-29T03:33:28;98588.38;;;18.38;97.29
11542;BME280;5827;49.482;7.716;2022-07-29T03:35:30;98580.72;;;18.40;97.97
11542;BME280;5827;49.482;7.716;2022-07-29T03:37:32;98579.81;;;18.45;97.25
11542;BME280;5827;49.482;7.716;2022-07-29T03:39:40;98578.34;;;18.52;97.21
11542;BME280;5827;49.482;7.716;2022-07-29T03:41:44;98588.88;;;18.68;97.00
11542;BME280;5827;49.482;7.716;2022-07-29T03:43:49;98572.91;;;18.52;97.36
11542;BME280;5827;49.482;7.716;2022-07-29T03:45:54;98572.91;;;18.39;98.51
11542;BME280;5827;49.482;7.716;2022-07-29T03:47:59;98576.72;;;18.38;99.56
11542;BME280;5827;49.482;7.716;2022-07-29T03:50:06;98581.84;;;18.39;98.72
11542;BME280;5827;49.482;7.716;2022-07-29T03:52:09;98583.66;;;18.44;98.30
11542;BME280;5827;49.482;7.716;2022-07-29T03:54:11;98581.22;;;18.28;99.63
11542;BME280;5827;49.482;7.716;2022-07-29T03:56:15;98585.69;;;18.52;97.90
11542;BME280;5827;49.482;7.716;2022-07-29T03:58:19;98585.78;;;18.47;97.85
11542;BME280;5827;49.482;7.716;2022-07-29T04:00:21;98581.44;;;18.46;98.07
11542;BME280;5827;49.482;7.716;2022-07-29T04:02:24;98585.97;;;18.50;97.39
11542;BME280;5827;49.482;7.716;2022-07-29T04:04:26;98584.44;;;18.44;97.50
11542;BME280;5827;49.482;7.716;2022-07-29T04:06:28;98584.44;;;18.44;97.89
11542;BME280;5827;49.482;7.716;2022-07-29T04:08:29;98582.53;;;18.45;97.74
11542;BME280;5827;49.482;7.716;2022-07-29T04:10:31;98586.25;;;18.49;97.52
11542;BME280;5827;49.482;7.716;2022-07-29T04:12:33;98584.06;;;18.51;97.49
11542;BME280;5827;49.482;7.716;2022-07-29T04:14:36;98589.91;;;18.58;96.85
11542;BME280;5827;49.482;7.716;2022-07-29T04:16:37;98592.28;;;18.60;96.98
11542;BME280;5827;49.482;7.716;2022-07-29T04:18:39;98589.91;;;18.58;96.39
11542;BME280;5827;49.482;7.716;2022-07-29T04:20:40;98591.34;;;18.69;96.60
11542;BME280;5827;49.482;7.716;2022-07-29T04:22:42;98600.19;;;18.75;95.67
11542;BME280;5827;49.482;7.716;2022-07-29T04:24:43;98599.09;;;18.76;95.61
11542;BME280;5827;49.482;7.716;2022-07-29T04:26:45;98597.59;;;18.70;95.68
11542;BME280;5827;49.482;7.716;2022-07-29T04:28:47;98604.31;;;18.72;95.42
11542;BME280;5827;49.482;7.716;2022-07-29T04:30:50;98601.38;;;18.83;95.13
11542;BME280;5827;49.482;7.716;2022-07-29T04:32:51;98602.50;;;18.82;95.41
11542;BME280;5827;49.482;7.716;2022-07-29T04:34:53;98601.09;;;18.84;95.17
11542;BME280;5827;49.482;7.716;2022-07-29T04:36:54;98605.53;;;18.94;95.69
11542;BME280;5827;49.482;7.716;2022-07-29T04:38:56;98610.66;;;18.95;94.84
11542;BME280;5827;49.482;7.716;2022-07-29T04:40:58;98608.94;;;18.99;94.69
11542;BME280;5827;49.482;7.716;2022-07-29T04:43:00;98612.34;;;19.05;94.98
11542;BME280;5827;49.482;7.716;2022-07-29T04:45:01;98624.84;;;19.20;95.15
11542;BME280;5827;49.482;7.716;2022-07-29T04:47:07;98629.50;;;19.42;94.58
11542;BME280;5827;49.482;7.716;2022-07-29T04:49:08;98631.03;;;19.62;93.51
11542;BME280;5827;49.482;7.716;2022-07-29T04:51:10;98640.25;;;19.74;93.29
11542;BME280;5827;49.482;7.716;2022-07-29T04:53:11;98638.53;;;20.01;91.44
11542;BME280;5827;49.482;7.716;2022-07-29T04:55:13;98633.56;;;20.17;89.70
11542;BME280;5827;49.482;7.716;2022-07-29T04:57:14;98642.75;;;20.52;87.96
11542;BME280;5827;49.482;7.716;2022-07-29T04:59:16;98643.72;;;20.87;86.13
11542;BME280;5827;49.482;7.716;2022-07-29T05:01:17;98644.25;;;20.98;84.03
11542;BME280;5827;49.482;7.716;2022-07-29T05:03:20;98656.47;;;21.09;83.78
11542;BME280;5827;49.482;7.716;2022-07-29T05:05:22;98649.13;;;21.10;81.42
11542;BME280;5827;49.482;7.716;2022-07-29T05:07:23;98661.28;;;21.03;82.44
11542;BME280;5827;49.482;7.716;2022-07-29T05:09:25;98653.44;;;21.11;82.12
11542;BME280;5827;49.482;7.716;2022-07-29T05:11:26;98658.47;;;21.26;79.88
11542;BME280;5827;49.482;7.716;2022-07-29T05:13:28;98660.94;;;21.36;80.66
11542;BME280;5827;49.482;7.716;2022-07-29T05:15:29;98650.44;;;21.29;80.95
11542;BME280;5827;49.482;7.716;2022-07-29T05:17:30;98654.69;;;21.36;80.30
11542;BME280;5827;49.482;7.716;2022-07-29T05:19:33;98656.13;;;21.42;79.30
11542;BME280;5827;49.482;7.716;2022-07-29T05:21:35;98648.59;;;20.99;81.97
11542;BME280;5827;49.482;7.716;2022-07-29T05:23:36;98645.91;;;21.08;81.61
11542;BME280;5827;49.482;7.716;2022-07-29T05:25:38;98643.84;;;21.13;81.50
11542;BME280;5827;49.482;7.716;2022-07-29T05:27:39;98640.88;;;21.32;82.68
11542;BME280;5827;49.482;7.716;2022-07-29T05:29:41;98647.16;;;21.50;80.76
11542;BME280;5827;49.482;7.716;2022-07-29T05:31:43;98646.88;;;22.03;79.58
11542;BME280;5827;49.482;7.716;2022-07-29T05:33:44;98650.09;;;22.05;77.91
11542;BME280;5827;49.482;7.716;2022-07-29T05:35:47;98658.28;;;21.97;77.53
11542;BME280;5827;49.482;7.716;2022-07-29T05:37:48;98654.91;;;22.26;76.33
11542;BME280;5827;49.482;7.716;2022-07-29T05:39:50;98647.84;;;22.25;77.57
11542;BME280;5827;49.482;7.716;2022-07-29T05:41:51;98660.34;;;22.52;75.21
11542;BME280;5827;49.482;7.716;2022-07-29T05:43:53;98647.47;;;22.61;75.54
11542;BME280;5827;49.482;7.716;2022-07-29T05:45:55;98662.16;;;22.95;73.95
11542;BME280;5827;49.482;7.716;2022-07-29T05:47:56;98659.00;;;23.14;72.84
11542;BME280;5827;49.482;7.716;2022-07-29T05:49:58;98674.66;;;23.64;70.44
11542;BME280;5827;49.482;7.716;2022-07-29T05:52:00;98674.66;;;23.93;70.02
11542;BME280;5827;49.482;7.716;2022-07-29T05:54:02;98672.69;;;23.73;69.10
11542;BME280;5827;49.482;7.716;2022-07-29T05:56:04;98672.59;;;23.69;69.96
11542;BME280;5827;49.482;7.716;2022-07-29T05:58:06;98675.72;;;23.80;69.34
11542;BME280;5827;49.482;7.716;2022-07-29T06:00:09;98672.69;;;23.73;67.85
11542;BME280;5827;49.482;7.716;2022-07-29T06:02:11;98669.25;;;23.25;69.59
11542;BME280;5827;49.482;7.716;2022-07-29T06:04:13;98669.78;;;23.19;71.20
11542;BME280;5827;49.482;7.716;2022-07-29T06:06:14;98671.09;;;23.13;71.17
11542;BME280;5827;49.482;7.716;2022-07-29T06:08:17;98665.88;;;22.81;73.36
11542;BME280;5827;49.482;7.716;2022-07-29T06:10:18;98673.00;;;22.65;73.30
11542;BME280;5827;49.482;7.716;2022-07-29T06:12:20;98659.19;;;22.53;73.88
11542;BME280;5827;49.482;7.716;2022-07-29T06:14:21;98666.16;;;22.42;76.07
11542;BME280;5827;49.482;7.716;2022-07-29T06:16:23;98668.97;;;22.63;75.32
11542;BME280;5827;49.482;7.716;2022-07-29T06:18:25;98669.06;;;23.01;73.97
11542;BME280;5827;49.482;7.716;2022-07-29T06:20:27;98687.50;;;23.13;71.71
11542;BME280;5827;49.482;7.716;2022-07-29T06:22:29;98687.97;;;23.44;71.60
11542;BME280;5827;49.482;7.716;2022-07-29T06:24:32;98692.75;;;23.65;70.36
11542;BME280;5827;49.482;7.716;2022-07-29T06:26:33;98695.34;;;24.03;70.18
11542;BME280;5827;49.482;7.716;2022-07-29T06:28:35;98700.81;;;24.45;67.73
11542;BME280;5827;49.482;7.716;2022-07-29T06:30:36;98701.41;;;24.83;66.03
11542;BME280;5827;49.482;7.716;2022-07-29T06:32:38;98700.50;;;24.92;64.93
11542;BME280;5827;49.482;7.716;2022-07-29T06:34:39;98700.75;;;24.99;64.74
11542;BME280;5827;49.482;7.716;2022-07-29T06:36:41;98710.91;;;24.98;64.32
11542;BME280;5827;49.482;7.716;2022-07-29T06:38:42;98709.38;;;25.46;65.35
11542;BME280;5827;49.482;7.716;2022-07-29T06:40:45;98718.28;;;25.68;62.35
11542;BME280;5827;49.482;7.716;2022-07-29T06:43:02;98717.72;;;25.50;61.77
11542;BME280;5827;49.482;7.716;2022-07-29T06:45:03;98713.63;;;25.80;62.09
11542;BME280;5827;49.482;7.716;2022-07-29T06:47:05;98727.66;;;25.91;61.00
11542;BME280;5827;49.482;7.716;2022-07-29T06:49:06;98733.72;;;25.72;61.64
11542;BME280;5827;49.482;7.716;2022-07-29T06:51:09;98724.25;;;25.82;60.55
11542;BME280;5827;49.482;7.716;2022-07-29T06:53:11;98741.25;;;26.12;59.87
11542;BME280;5827;49.482;7.716;2022-07-29T06:55:12;98736.75;;;26.60;60.61
11542;BME280;5827;49.482;7.716;2022-07-29T06:57:16;98742.00;;;26.65;59.00
11542;BME280;5827;49.482;7.716;2022-07-29T06:59:17;98734.38;;;26.74;58.66
11542;BME280;5827;49.482;7.716;2022-07-29T07:01:19;98743.66;;;26.42;58.28
11542;BME280;5827;49.482;7.716;2022-07-29T07:03:21;98738.38;;;26.21;60.33
11542;BME280;5827;49.482;7.716;2022-07-29T07:05:22;98733.91;;;26.16;61.29
11542;BME280;5827;49.482;7.716;2022-07-29T07:07:24;98739.41;;;26.16;60.05
11542;BME280;5827;49.482;7.716;2022-07-29T07:09:25;98746.56;;;26.33;58.20
11542;BME280;5827;49.482;7.716;2022-07-29T07:11:27;98727.16;;;26.14;60.34
11542;BME280;5827;49.482;7.716;2022-07-29T07:13:30;98749.94;;;26.02;58.83
11542;BME280;5827;49.482;7.716;2022-07-29T07:15:35;98748.34;;;26.13;58.80
11542;BME280;5827;49.482;7.716;2022-07-29T07:17:37;98753.63;;;25.57;59.06
11542;BME280;5827;49.482;7.716;2022-07-29T07:19:38;98750.53;;;25.71;59.51
11542;BME280;5827;49.482;7.716;2022-07-29T07:21:40;98748.38;;;25.76;58.39
11542;BME280;5827;49.482;7.716;2022-07-29T07:23:41;98750.03;;;26.18;57.77
11542;BME280;5827;49.482;7.716;2022-07-29T07:25:43;98769.06;;;26.39;55.94
11542;BME280;5827;49.482;7.716;2022-07-29T07:27:44;98775.16;;;27.00;53.52
11542;BME280;5827;49.482;7.716;2022-07-29T07:29:47;98781.31;;;27.09;53.26
11542;BME280;5827;49.482;7.716;2022-07-29T07:31:49;98788.19;;;27.63;49.79
11542;BME280;5827;49.482;7.716;2022-07-29T07:33:50;98798.84;;;27.33;48.54
11542;BME280;5827;49.482;7.716;2022-07-29T07:35:53;98797.97;;;27.01;46.13
11542;BME280;5827;49.482;7.716;2022-07-29T07:37:54;98791.41;;;26.49;47.05
11542;BME280;5827;49.482;7.716;2022-07-29T07:39:56;98781.66;;;26.12;49.65
11542;BME280;5827;49.482;7.716;2022-07-29T07:41:58;98771.53;;;26.16;50.97
11542;BME280;5827;49.482;7.716;2022-07-29T07:43:59;98770.50;;;26.20;51.53
11542;BME280;5827;49.482;7.716;2022-07-29T07:46:03;98767.16;;;26.39;51.27
11542;BME280;5827;49.482;7.716;2022-07-29T07:48:05;98766.00;;;26.40;52.94
11542;BME280;5827;49.482;7.716;2022-07-29T07:50:09;98763.34;;;25.91;52.35
11542;BME280;5827;49.482;7.716;2022-07-29T07:52:11;98754.88;;;25.96;52.36
11542;BME280;5827;49.482;7.716;2022-07-29T07:54:12;98760.59;;;25.91;53.96
11542;BME280;5827;49.482;7.716;2022-07-29T07:56:14;98763.47;;;25.82;55.09
11542;BME280;5827;49.482;7.716;2022-07-29T07:58:16;98758.75;;;25.58;56.04
11542;BME280;5827;49.482;7.716;2022-07-29T08:00:17;98765.75;;;25.44;56.12
11542;BME280;5827;49.482;7.716;2022-07-29T08:02:20;98762.31;;;25.59;56.73
11542;BME280;5827;49.482;7.716;2022-07-29T08:04:22;98761.97;;;25.97;56.70
11542;BME280;5827;49.482;7.716;2022-07-29T08:06:24;98768.28;;;26.38;55.80
11542;BME280;5827;49.482;7.716;2022-07-29T08:08:26;98767.59;;;26.41;56.11
11542;BME280;5827;49.482;7.716;2022-07-29T08:10:27;98767.63;;;26.69;55.51
11542;BME280;5827;49.482;7.716;2022-07-29T08:12:46;98770.63;;;26.64;54.50
11542;BME280;5827;49.482;7.716;2022-07-29T08:14:48;98770.25;;;26.94;54.33
11542;BME280;5827;49.482;7.716;2022-07-29T08:16:49;98769.38;;;27.18;53.99
11542;BME280;5827;49.482;7.716;2022-07-29T08:18:52;98774.66;;;26.67;52.58
11542;BME280;5827;49.482;7.716;2022-07-29T08:20:57;98773.38;;;27.36;52.51
11542;BME280;5827;49.482;7.716;2022-07-29T08:22:59;98781.63;;;27.68;51.37
11542;BME280;5827;49.482;7.716;2022-07-29T08:25:00;98785.72;;;27.26;49.12
11542;BME280;5827;49.482;7.716;2022-07-29T08:27:02;98782.69;;;27.47;48.94
11542;BME280;5827;49.482;7.716;2022-07-29T08:29:03;98775.94;;;27.45;51.35
11542;BME280;5827;49.482;7.716;2022-07-29T08:31:05;98782.69;;;27.63;48.29
11542;BME280;5827;49.482;7.716;2022-07-29T08:33:06;98788.00;;;27.56;48.21
11542;BME280;5827;49.482;7.716;2022-07-29T08:35:09;98782.59;;;27.91;49.87
11542;BME280;5827;49.482;7.716;2022-07-29T08:37:11;98790.81;;;28.07;49.38
11542;BME280;5827;49.482;7.716;2022-07-29T08:39:12;98784.94;;;28.08;48.46
11542;BME280;5827;49.482;7.716;2022-07-29T08:41:14;98784.47;;;27.87;49.61
11542;BME280;5827;49.482;7.716;2022-07-29T08:43:16;98784.81;;;27.70;48.77
11542;BME280;5827;49.482;7.716;2022-07-29T08:45:18;98783.50;;;27.64;50.15
11542;BME280;5827;49.482;7.716;2022-07-29T08:47:19;98781.44;;;27.76;50.20
11542;BME280;5827;49.482;7.716;2022-07-29T08:49:21;98777.06;;;28.42;50.63
11542;BME280;5827;49.482;7.716;2022-07-29T08:51:26;98795.84;;;28.75;46.75
11542;BME280;5827;49.482;7.716;2022-07-29T08:53:28;98796.88;;;28.86;47.26
11542;BME280;5827;49.482;7.716;2022-07-29T08:55:30;98797.78;;;29.13;48.27
11542;BME280;5827;49.482;7.716;2022-07-29T08:57:33;98799.81;;;29.17;47.86
11542;BME280;5827;49.482;7.716;2022-07-29T08:59:37;98809.56;;;28.72;48.39
11542;BME280;5827;49.482;7.716;2022-07-29T09:01:43;98798.19;;;27.71;49.01
11542;BME280;5827;49.482;7.716;2022-07-29T09:03:45;98797.69;;;27.34;48.88
11542;BME280;5827;49.482;7.716;2022-07-29T09:05:47;98794.56;;;27.67;49.02
11542;BME280;5827;49.482;7.716;2022-07-29T09:07:51;98793.41;;;28.00;49.55
11542;BME280;5827;49.482;7.716;2022-07-29T09:09:53;98800.28;;;28.41;48.02
11542;BME280;5827;49.482;7.716;2022-07-29T09:11:55;98789.97;;;28.38;47.97
11542;BME280;5827;49.482;7.716;2022-07-29T09:13:56;98794.88;;;27.78;48.45
11542;BME280;5827;49.482;7.716;2022-07-29T09:15:58;98786.00;;;28.20;49.08
11542;BME280;5827;49.482;7.716;2022-07-29T09:18:02;98795.72;;;27.98;48.32
11542;BME280;5827;49.482;7.716;2022-07-29T09:20:09;98790.91;;;28.10;49.08
11542;BME280;5827;49.482;7.716;2022-07-29T09:22:10;98786.47;;;27.90;48.92
11542;BME280;5827;49.482;7.716;2022-07-29T09:24:13;98791.00;;;27.67;49.56
11542;BME280;5827;49.482;7.716;2022-07-29T09:26:16;98783.06;;;27.77;49.24
11542;BME280;5827;49.482;7.716;2022-07-29T09:28:17;98792.88;;;28.29;49.02
11542;BME280;5827;49.482;7.716;2022-07-29T09:30:19;98801.06;;;28.61;47.69
11542;BME280;5827;49.482;7.716;2022-07-29T09:32:22;98799.34;;;29.34;47.51
11542;BME280;5827;49.482;7.716;2022-07-29T09:34:25;98804.31;;;29.48;45.63
11542;BME280;5827;49.482;7.716;2022-07-29T09:36:28;98811.88;;;29.74;46.24
11542;BME280;5827;49.482;7.716;2022-07-29T09:38:30;98800.50;;;29.79;46.37
11542;BME280;5827;49.482;7.716;2022-07-29T09:40:33;98796.22;;;29.58;47.11
11542;BME280;5827;49.482;7.716;2022-07-29T09:42:35;98801.94;;;29.46;45.96
11542;BME280;5827;49.482;7.716;2022-07-29T09:44:45;98806.34;;;30.00;46.32
11542;BME280;5827;49.482;7.716;2022-07-29T09:46:58;98807.63;;;30.06;44.97
11542;BME280;5827;49.482;7.716;2022-07-29T09:49:06;98804.22;;;30.43;45.75
11542;BME280;5827;49.482;7.716;2022-07-29T09:51:17;98807.97;;;30.01;44.07
11542;BME280;5827;49.482;7.716;2022-07-29T09:53:30;98798.25;;;29.61;45.80
11542;BME280;5827;49.482;7.716;2022-07-29T09:55:46;98796.84;;;29.98;46.17
11542;BME280;5827;49.482;7.716;2022-07-29T09:57:47;98803.13;;;30.21;45.71
11542;BME280;5827;49.482;7.716;2022-07-29T09:59:55;98801.34;;;29.56;45.21
11542;BME280;5827;49.482;7.716;2022-07-29T10:01:57;98800.16;;;29.57;45.65
11542;BME280;5827;49.482;7.716;2022-07-29T10:03:59;98786.53;;;29.95;47.23
11542;BME280;5827;49.482;7.716;2022-07-29T10:06:05;98796.41;;;29.96;45.78
11542;BME280;5827;49.482;7.716;2022-07-29T10:08:08;98792.94;;;29.07;46.04
11542;BME280;5827;49.482;7.716;2022-07-29T10:10:10;98797.69;;;29.29;46.07
11542;BME280;5827;49.482;7.716;2022-07-29T10:12:13;98808.50;;;29.61;44.86
11542;BME280;5827;49.482;7.716;2022-07-29T10:14:15;98792.56;;;29.77;48.46
11542;BME280;5827;49.482;7.716;2022-07-29T10:16:16;98801.97;;;29.73;45.45
11542;BME280;5827;49.482;7.716;2022-07-29T10:18:18;98798.06;;;29.74;46.85
11542;BME280;5827;49.482;7.716;2022-07-29T10:20:20;98800.75;;;29.47;45.84
11542;BME280;5827;49.482;7.716;2022-07-29T10:22:22;98795.50;;;29.61;46.38
11542;BME280;5827;49.482;7.716;2022-07-29T10:24:24;98806.97;;;29.63;44.56
11542;BME280;5827;49.482;7.716;2022-07-29T10:26:27;98800.34;;;29.95;45.69
11542;BME280;5827;49.482;7.716;2022-07-29T10:28:31;98804.66;;;30.19;45.07
11542;BME280;5827;49.482;7.716;2022-07-29T10:30:33;98801.19;;;29.99;45.78
11542;BME280;5827;49.482;7.716;2022-07-29T10:32:48;98800.78;;;29.70;46.27
11542;BME280;5827;49.482;7.716;2022-07-29T10:35:12;98800.19;;;30.10;44.80
11542;BME280;5827;49.482;7.716;2022-07-29T10:37:21;98793.72;;;29.99;44.57
11542;BME280;5827;49.482;7.716;2022-07-29T10:39:36;98780.09;;;29.87;47.01
11542;BME280;5827;49.482;7.716;2022-07-29T10:42:01;98791.16;;;29.60;46.05
11542;BME280;5827;49.482;7.716;2022-07-29T10:44:11;98778.47;;;29.59;47.01
11542;BME280;5827;49.482;7.716;2022-07-29T10:46:14;98787.44;;;29.53;46.26
11542;BME280;5827;49.482;7.716;2022-07-29T10:48:16;98780.31;;;29.75;45.76
11542;BME280;5827;49.482;7.716;2022-07-29T10:50:17;98790.56;;;30.27;45.55
11542;BME280;5827;49.482;7.716;2022-07-29T10:52:19;98778.59;;;30.76;45.67
11542;BME280;5827;49.482;7.716;2022-07-29T10:54:53;98775.28;;;31.01;44.57
11542;BME280;5827;49.482;7.716;2022-07-29T10:56:55;98774.88;;;30.99;44.67
11542;BME280;5827;49.482;7.716;2022-07-29T10:59:26;98772.81;;;30.58;45.13
11542;BME280;5827;49.482;7.716;2022-07-29T11:01:30;98780.44;;;30.69;43.61
11542;BME280;5827;49.482;7.716;2022-07-29T11:03:46;98776.59;;;30.77;43.85
11542;BME280;5827;49.482;7.716;2022-07-29T11:05:53;98779.69;;;30.38;43.41